createdAt,value
2018-07-16T00:00:19.789Z,1009.71
2018-07-16T00:00:45.952Z,1009.7
2018-07-16T00:01:12.091Z,1009.66
2018-07-16T00:01:38.227Z,1009.7
2018-07-16T00:02:04.368Z,1009.71
2018-07-16T00:02:30.505Z,1009.71
2018-07-16T00:02:56.666Z,1009.67
2018-07-16T00:03:22.808Z,1009.71
2018-07-16T00:03:48.944Z,1009.69
2018-07-16T00:04:15.081Z,1009.68
2018-07-16T00:04:41.222Z,1009.66
2018-07-16T00:05:07.359Z,1009.65
2018-07-16T00:05:33.521Z,1009.65
2018-07-16T00:05:59.688Z,1009.66
2018-07-16T00:06:25.823Z,1009.68
2018-07-16T00:06:51.988Z,1009.66
2018-07-16T00:07:18.134Z,1009.62
2018-07-16T00:07:44.275Z,1009.65
2018-07-16T00:08:10.415Z,1009.66
2018-07-16T00:08:36.547Z,1009.65
2018-07-16T00:09:02.686Z,1009.66
2018-07-16T00:09:28.826Z,1009.63
2018-07-16T00:09:54.983Z,1009.62
2018-07-16T00:10:21.122Z,1009.63
2018-07-16T00:10:47.263Z,1009.61
2018-07-16T00:11:13.399Z,1009.6
2018-07-16T00:11:39.531Z,1009.59
2018-07-16T00:12:05.667Z,1009.58
2018-07-16T00:12:31.808Z,1009.6
2018-07-16T00:12:57.955Z,1009.61
2018-07-16T00:13:24.088Z,1009.59
2018-07-16T00:13:50.257Z,1009.58
2018-07-16T00:14:16.388Z,1009.62
2018-07-16T00:14:42.690Z,1009.61
2018-07-16T00:15:08.687Z,1009.6
2018-07-16T00:15:34.826Z,1009.58
2018-07-16T00:16:00.965Z,1009.59
2018-07-16T00:16:27.104Z,1009.58
2018-07-16T00:16:53.237Z,1009.63
2018-07-16T00:17:19.377Z,1009.56
2018-07-16T00:17:45.521Z,1009.59
2018-07-16T00:18:11.658Z,1009.61
2018-07-16T00:18:37.797Z,1009.57
2018-07-16T00:19:03.956Z,1009.63
2018-07-16T00:19:30.094Z,1009.58
2018-07-16T00:19:56.235Z,1009.63
2018-07-16T00:20:22.365Z,1009.6
2018-07-16T00:20:48.510Z,1009.59
2018-07-16T00:21:14.647Z,1009.59
2018-07-16T00:21:40.788Z,1009.58
2018-07-16T00:22:06.923Z,1009.57
2018-07-16T00:22:33.084Z,1009.59
2018-07-16T00:22:59.223Z,1009.57
2018-07-16T00:23:25.366Z,1009.52
2018-07-16T00:23:51.500Z,1009.51
2018-07-16T00:24:17.641Z,1009.54
2018-07-16T00:24:43.802Z,1009.53
2018-07-16T00:25:09.948Z,1009.55
2018-07-16T00:25:36.101Z,1009.53
2018-07-16T00:26:02.241Z,1009.54
2018-07-16T00:26:28.382Z,1009.5
2018-07-16T00:26:54.546Z,1009.54
2018-07-16T00:27:20.687Z,1009.51
2018-07-16T00:27:46.848Z,1009.52
2018-07-16T00:28:12.976Z,1009.48
2018-07-16T00:28:39.116Z,1009.48
2018-07-16T00:29:05.255Z,1009.53
2018-07-16T00:29:31.402Z,1009.51
2018-07-16T00:29:57.542Z,1009.52
2018-07-16T00:30:23.699Z,1009.52
2018-07-16T00:30:49.842Z,1009.52
2018-07-16T00:31:15.981Z,1009.53
2018-07-16T00:31:42.118Z,1009.5
2018-07-16T00:32:08.266Z,1009.54
2018-07-16T00:32:34.407Z,1009.5
2018-07-16T00:33:00.543Z,1009.53
2018-07-16T00:33:26.710Z,1009.52
2018-07-16T00:33:52.851Z,1009.51
2018-07-16T00:34:18.985Z,1009.5
2018-07-16T00:34:45.128Z,1009.5
2018-07-16T00:35:11.289Z,1009.51
2018-07-16T00:35:37.430Z,1009.52
2018-07-16T00:36:03.595Z,1009.52
2018-07-16T00:36:29.771Z,1009.5
2018-07-16T00:36:55.928Z,1009.53
2018-07-16T00:37:22.071Z,1009.51
2018-07-16T00:37:48.207Z,1009.53
2018-07-16T00:38:14.365Z,1009.48
2018-07-16T00:38:40.508Z,1009.5
2018-07-16T00:39:06.650Z,1009.5
2018-07-16T00:39:32.784Z,1009.48
2018-07-16T00:39:58.923Z,1009.53
2018-07-16T00:40:25.068Z,1009.52
2018-07-16T00:40:51.203Z,1009.51
2018-07-16T00:41:17.341Z,1009.5
2018-07-16T00:41:43.506Z,1009.48
2018-07-16T00:42:09.642Z,1009.51
2018-07-16T00:42:35.781Z,1009.5
2018-07-16T00:43:01.916Z,1009.45
2018-07-16T00:43:28.054Z,1009.47
2018-07-16T00:43:54.191Z,1009.46
2018-07-16T00:44:20.412Z,1009.46
2018-07-16T00:44:46.483Z,1009.48
2018-07-16T00:45:12.619Z,1009.45
2018-07-16T00:45:38.783Z,1009.45
2018-07-16T00:46:04.913Z,1009.45
2018-07-16T00:46:31.050Z,1009.43
2018-07-16T00:46:57.188Z,1009.43
2018-07-16T00:47:23.330Z,1009.44
2018-07-16T00:47:49.493Z,1009.44
2018-07-16T00:48:15.636Z,1009.4
2018-07-16T00:48:41.771Z,1009.43
2018-07-16T00:49:07.904Z,1009.41
2018-07-16T00:49:34.047Z,1009.41
2018-07-16T00:50:00.180Z,1009.36
2018-07-16T00:50:26.322Z,1009.39
2018-07-16T00:50:52.462Z,1009.39
2018-07-16T00:51:18.599Z,1009.43
2018-07-16T00:51:44.738Z,1009.41
2018-07-16T00:52:10.883Z,1009.42
2018-07-16T00:52:37.019Z,1009.43
2018-07-16T00:53:03.159Z,1009.44
2018-07-16T00:53:29.316Z,1009.43
2018-07-16T00:53:55.455Z,1009.46
2018-07-16T00:54:21.586Z,1009.4
2018-07-16T00:54:47.725Z,1009.45
2018-07-16T00:55:13.859Z,1009.42
2018-07-16T00:55:40.927Z,1009.42
2018-07-16T00:56:07.031Z,1009.39
2018-07-16T00:56:33.216Z,1009.37
2018-07-16T00:56:59.334Z,1009.38
2018-07-16T00:57:25.514Z,1009.4
2018-07-16T00:57:51.649Z,1009.39
2018-07-16T00:58:17.811Z,1009.39
2018-07-16T00:58:43.948Z,1009.37
2018-07-16T00:59:10.113Z,1009.38
2018-07-16T00:59:36.275Z,1009.38
2018-07-16T01:00:02.418Z,1009.37
2018-07-16T01:00:28.547Z,1009.36
2018-07-16T01:00:54.689Z,1009.35
2018-07-16T01:01:20.821Z,1009.38
2018-07-16T01:01:46.985Z,1009.38
2018-07-16T01:02:13.132Z,1009.37
2018-07-16T01:02:39.267Z,1009.35
2018-07-16T01:03:05.402Z,1009.36
2018-07-16T01:03:31.543Z,1009.34
2018-07-16T01:03:57.684Z,1009.35
2018-07-16T01:04:23.821Z,1009.38
2018-07-16T01:04:49.964Z,1009.41
2018-07-16T01:05:16.098Z,1009.4
2018-07-16T01:05:42.237Z,1009.39
2018-07-16T01:06:08.377Z,1009.36
2018-07-16T01:06:34.514Z,1009.35
2018-07-16T01:07:00.678Z,1009.37
2018-07-16T01:07:26.787Z,1009.37
2018-07-16T01:07:52.928Z,1009.34
2018-07-16T01:08:19.089Z,1009.36
2018-07-16T01:08:45.215Z,1009.37
2018-07-16T01:09:11.353Z,1009.36
2018-07-16T01:09:37.490Z,1009.33
2018-07-16T01:10:03.631Z,1009.34
2018-07-16T01:10:29.786Z,1009.35
2018-07-16T01:10:55.935Z,1009.33
2018-07-16T01:11:22.087Z,1009.29
2018-07-16T01:11:48.253Z,1009.32
2018-07-16T01:12:14.395Z,1009.31
2018-07-16T01:12:40.531Z,1009.29
2018-07-16T01:13:06.670Z,1009.3
2018-07-16T01:13:32.805Z,1009.31
2018-07-16T01:13:58.944Z,1009.27
2018-07-16T01:14:25.076Z,1009.28
2018-07-16T01:14:51.221Z,1009.34
2018-07-16T01:15:17.355Z,1009.33
2018-07-16T01:15:43.502Z,1009.32
2018-07-16T01:16:09.638Z,1009.32
2018-07-16T01:16:35.802Z,1009.3
2018-07-16T01:17:01.944Z,1009.31
2018-07-16T01:17:28.079Z,1009.26
2018-07-16T01:17:54.222Z,1009.29
2018-07-16T01:18:20.357Z,1009.29
2018-07-16T01:18:46.491Z,1009.27
2018-07-16T01:19:12.632Z,1009.27
2018-07-16T01:19:38.774Z,1009.3
2018-07-16T01:20:04.905Z,1009.24
2018-07-16T01:20:31.064Z,1009.29
2018-07-16T01:20:57.207Z,1009.26
2018-07-16T01:21:23.374Z,1009.28
2018-07-16T01:21:49.532Z,1009.26
2018-07-16T01:22:15.688Z,1009.27
2018-07-16T01:22:41.829Z,1009.28
2018-07-16T01:23:07.993Z,1009.27
2018-07-16T01:23:34.153Z,1009.25
2018-07-16T01:24:00.314Z,1009.24
2018-07-16T01:24:26.456Z,1009.24
2018-07-16T01:24:52.620Z,1009.24
2018-07-16T01:25:18.762Z,1009.25
2018-07-16T01:25:44.895Z,1009.28
2018-07-16T01:26:11.038Z,1009.23
2018-07-16T01:26:37.175Z,1009.24
2018-07-16T01:27:03.317Z,1009.24
2018-07-16T01:27:29.449Z,1009.22
2018-07-16T01:27:55.590Z,1009.21
2018-07-16T01:28:21.724Z,1009.24
2018-07-16T01:28:47.865Z,1009.21
2018-07-16T01:29:14.005Z,1009.2
2018-07-16T01:29:40.139Z,1009.19
2018-07-16T01:30:06.301Z,1009.19
2018-07-16T01:30:32.444Z,1009.2
2018-07-16T01:30:58.637Z,1009.21
2018-07-16T01:31:24.718Z,1009.18
2018-07-16T01:31:50.862Z,1009.2
2018-07-16T01:32:17.047Z,1009.17
2018-07-16T01:32:43.245Z,1009.17
2018-07-16T01:33:09.351Z,1009.2
2018-07-16T01:33:35.486Z,1009.22
2018-07-16T01:34:01.623Z,1009.19
2018-07-16T01:34:27.760Z,1009.2
2018-07-16T01:34:53.908Z,1009.17
2018-07-16T01:35:20.051Z,1009.2
2018-07-16T01:35:46.219Z,1009.19
2018-07-16T01:36:12.369Z,1009.18
2018-07-16T01:36:38.509Z,1009.16
2018-07-16T01:37:04.677Z,1009.19
2018-07-16T01:37:30.838Z,1009.16
2018-07-16T01:37:57.016Z,1009.15
2018-07-16T01:38:23.150Z,1009.12
2018-07-16T01:38:49.290Z,1009.15
2018-07-16T01:39:15.421Z,1009.15
2018-07-16T01:39:41.556Z,1009.13
2018-07-16T01:40:07.691Z,1009.12
2018-07-16T01:40:33.860Z,1009.14
2018-07-16T01:40:59.987Z,1009.15
2018-07-16T01:41:26.125Z,1009.13
2018-07-16T01:41:52.261Z,1009.13
2018-07-16T01:42:18.422Z,1009.1
2018-07-16T01:42:44.581Z,1009.09
2018-07-16T01:43:10.722Z,1009.12
2018-07-16T01:43:36.860Z,1009.1
2018-07-16T01:44:03.017Z,1009.12
2018-07-16T01:44:29.152Z,1009.09
2018-07-16T01:44:55.314Z,1009.08
2018-07-16T01:45:21.450Z,1009.12
2018-07-16T01:45:47.603Z,1009.07
2018-07-16T01:46:13.750Z,1009.08
2018-07-16T01:46:39.881Z,1009.07
2018-07-16T01:47:06.025Z,1009.07
2018-07-16T01:47:32.162Z,1009.09
2018-07-16T01:47:58.325Z,1009.04
2018-07-16T01:48:24.463Z,1009.05
2018-07-16T01:48:50.602Z,1009.05
2018-07-16T01:49:16.743Z,1009.04
2018-07-16T01:49:42.878Z,1009.09
2018-07-16T01:50:09.017Z,1009.03
2018-07-16T01:50:35.164Z,1009.04
2018-07-16T01:51:01.290Z,1009.02
2018-07-16T01:51:27.435Z,1009.04
2018-07-16T01:51:53.573Z,1009.06
2018-07-16T01:52:19.714Z,1009
2018-07-16T01:52:45.883Z,1009
2018-07-16T01:53:12.013Z,1009.05
2018-07-16T01:53:38.151Z,1009.05
2018-07-16T01:54:04.295Z,1009
2018-07-16T01:54:30.478Z,1009.01
2018-07-16T01:54:56.617Z,1009
2018-07-16T01:55:22.782Z,1008.98
2018-07-16T01:55:48.924Z,1008.98
2018-07-16T01:56:15.061Z,1008.97
2018-07-16T01:56:41.205Z,1008.97
2018-07-16T01:57:07.361Z,1008.98
2018-07-16T01:57:33.524Z,1008.96
2018-07-16T01:57:59.655Z,1008.95
2018-07-16T01:58:25.819Z,1008.97
2018-07-16T01:58:51.969Z,1008.97
2018-07-16T01:59:18.098Z,1008.95
2018-07-16T01:59:44.230Z,1008.94
2018-07-16T02:00:10.371Z,1008.95
2018-07-16T02:00:36.510Z,1008.94
2018-07-16T02:01:02.638Z,1008.94
2018-07-16T02:01:28.777Z,1008.91
2018-07-16T02:01:54.911Z,1008.95
2018-07-16T02:02:21.051Z,1008.95
2018-07-16T02:02:47.207Z,1008.98
2018-07-16T02:03:13.352Z,1008.95
2018-07-16T02:03:39.483Z,1008.92
2018-07-16T02:04:05.624Z,1008.91
2018-07-16T02:04:31.783Z,1008.95
2018-07-16T02:04:57.923Z,1008.9
2018-07-16T02:05:24.078Z,1008.87
2018-07-16T02:05:50.218Z,1008.93
2018-07-16T02:06:16.351Z,1008.88
2018-07-16T02:06:42.491Z,1008.9
2018-07-16T02:07:08.634Z,1008.93
2018-07-16T02:07:34.791Z,1008.88
2018-07-16T02:08:00.924Z,1008.9
2018-07-16T02:08:27.080Z,1008.91
2018-07-16T02:08:53.223Z,1008.89
2018-07-16T02:09:19.361Z,1008.88
2018-07-16T02:09:45.507Z,1008.9
2018-07-16T02:10:11.688Z,1008.85
2018-07-16T02:10:37.832Z,1008.88
2018-07-16T02:11:03.976Z,1008.9
2018-07-16T02:11:30.108Z,1008.91
2018-07-16T02:11:56.239Z,1008.91
2018-07-16T02:12:22.382Z,1008.91
2018-07-16T02:12:48.522Z,1008.94
2018-07-16T02:13:14.665Z,1008.93
2018-07-16T02:13:40.804Z,1008.93
2018-07-16T02:14:06.945Z,1008.9
2018-07-16T02:14:33.082Z,1008.92
2018-07-16T02:14:59.228Z,1008.92
2018-07-16T02:15:25.414Z,1008.88
2018-07-16T02:15:51.554Z,1008.88
2018-07-16T02:16:17.690Z,1008.9
2018-07-16T02:16:43.856Z,1008.92
2018-07-16T02:17:09.995Z,1008.86
2018-07-16T02:17:36.132Z,1008.88
2018-07-16T02:18:02.292Z,1008.83
2018-07-16T02:18:28.436Z,1008.87
2018-07-16T02:18:54.571Z,1008.89
2018-07-16T02:19:20.713Z,1008.86
2018-07-16T02:19:46.849Z,1008.9
2018-07-16T02:20:12.992Z,1008.9
2018-07-16T02:20:39.143Z,1008.9
2018-07-16T02:21:05.300Z,1008.91
2018-07-16T02:21:31.457Z,1008.9
2018-07-16T02:21:57.616Z,1008.87
2018-07-16T02:22:23.782Z,1008.87
2018-07-16T02:22:49.921Z,1008.88
2018-07-16T02:23:16.086Z,1008.9
2018-07-16T02:23:42.211Z,1008.9
2018-07-16T02:24:08.354Z,1008.87
2018-07-16T02:24:34.488Z,1008.87
2018-07-16T02:25:00.620Z,1008.89
2018-07-16T02:25:26.758Z,1008.86
2018-07-16T02:25:52.897Z,1008.89
2018-07-16T02:26:19.073Z,1008.87
2018-07-16T02:26:45.205Z,1008.85
2018-07-16T02:27:11.340Z,1008.87
2018-07-16T02:27:37.485Z,1008.87
2018-07-16T02:28:03.626Z,1008.92
2018-07-16T02:28:29.787Z,1008.9
2018-07-16T02:28:55.921Z,1008.88
2018-07-16T02:29:22.075Z,1008.86
2018-07-16T02:29:48.237Z,1008.88
2018-07-16T02:30:14.370Z,1008.92
2018-07-16T02:30:40.536Z,1008.9
2018-07-16T02:31:06.713Z,1008.88
2018-07-16T02:31:32.852Z,1008.89
2018-07-16T02:31:58.987Z,1008.86
2018-07-16T02:32:25.146Z,1008.88
2018-07-16T02:32:51.283Z,1008.85
2018-07-16T02:33:17.420Z,1008.88
2018-07-16T02:33:43.607Z,1008.86
2018-07-16T02:34:09.790Z,1008.87
2018-07-16T02:34:35.987Z,1008.85
2018-07-16T02:35:02.140Z,1008.83
2018-07-16T02:35:28.330Z,1008.87
2018-07-16T02:35:54.524Z,1008.83
2018-07-16T02:36:20.686Z,1008.87
2018-07-16T02:36:46.845Z,1008.86
2018-07-16T02:37:13.004Z,1008.86
2018-07-16T02:37:39.220Z,1008.87
2018-07-16T02:38:05.366Z,1008.86
2018-07-16T02:38:31.507Z,1008.85
2018-07-16T02:38:57.664Z,1008.82
2018-07-16T02:39:23.828Z,1008.82
2018-07-16T02:39:49.991Z,1008.81
2018-07-16T02:40:16.152Z,1008.81
2018-07-16T02:40:42.292Z,1008.79
2018-07-16T02:41:08.500Z,1008.79
2018-07-16T02:41:34.662Z,1008.82
2018-07-16T02:42:00.804Z,1008.78
2018-07-16T02:42:26.945Z,1008.83
2018-07-16T02:42:53.125Z,1008.81
2018-07-16T02:43:19.290Z,1008.79
2018-07-16T02:43:45.488Z,1008.77
2018-07-16T02:44:11.623Z,1008.81
2018-07-16T02:44:37.781Z,1008.83
2018-07-16T02:45:03.945Z,1008.79
2018-07-16T02:45:30.131Z,1008.79
2018-07-16T02:45:56.285Z,1008.81
2018-07-16T02:46:22.424Z,1008.79
2018-07-16T02:46:48.633Z,1008.78
2018-07-16T02:47:14.762Z,1008.78
2018-07-16T02:47:40.926Z,1008.81
2018-07-16T02:48:07.127Z,1008.78
2018-07-16T02:48:33.264Z,1008.77
2018-07-16T02:48:59.412Z,1008.77
2018-07-16T02:49:25.580Z,1008.83
2018-07-16T02:49:51.716Z,1008.79
2018-07-16T02:50:17.869Z,1008.8
2018-07-16T02:50:44.030Z,1008.78
2018-07-16T02:51:10.174Z,1008.78
2018-07-16T02:51:36.336Z,1008.77
2018-07-16T02:52:02.476Z,1008.76
2018-07-16T02:52:28.638Z,1008.81
2018-07-16T02:52:54.778Z,1008.79
2018-07-16T02:53:20.939Z,1008.8
2018-07-16T02:53:47.127Z,1008.8
2018-07-16T02:54:13.286Z,1008.75
2018-07-16T02:54:39.449Z,1008.76
2018-07-16T02:55:05.585Z,1008.79
2018-07-16T02:55:31.724Z,1008.81
2018-07-16T02:55:57.889Z,1008.75
2018-07-16T02:56:24.129Z,1008.77
2018-07-16T02:56:50.186Z,1008.77
2018-07-16T02:57:16.320Z,1008.78
2018-07-16T02:57:42.490Z,1008.79
2018-07-16T02:58:08.634Z,1008.79
2018-07-16T02:58:34.789Z,1008.79
2018-07-16T02:59:00.932Z,1008.75
2018-07-16T02:59:27.067Z,1008.77
2018-07-16T02:59:53.229Z,1008.79
2018-07-16T03:00:19.486Z,1008.76
2018-07-16T03:00:45.736Z,1008.75
2018-07-16T03:01:12.039Z,1008.75
2018-07-16T03:01:38.316Z,1008.76
2018-07-16T03:02:04.651Z,1008.74
2018-07-16T03:02:30.984Z,1008.76
2018-07-16T03:02:57.164Z,1008.81
2018-07-16T03:03:23.345Z,1008.75
2018-07-16T03:03:49.520Z,1008.79
2018-07-16T03:04:15.699Z,1008.79
2018-07-16T03:04:41.887Z,1008.81
2018-07-16T03:05:08.040Z,1008.78
2018-07-16T03:05:34.260Z,1008.82
2018-07-16T03:06:00.405Z,1008.77
2018-07-16T03:06:26.584Z,1008.79
2018-07-16T03:06:52.781Z,1008.8
2018-07-16T03:07:18.984Z,1008.78
2018-07-16T03:07:45.137Z,1008.76
2018-07-16T03:08:11.319Z,1008.75
2018-07-16T03:08:37.487Z,1008.77
2018-07-16T03:09:03.632Z,1008.77
2018-07-16T03:09:29.785Z,1008.78
2018-07-16T03:09:55.922Z,1008.75
2018-07-16T03:10:22.082Z,1008.77
2018-07-16T03:10:48.248Z,1008.79
2018-07-16T03:11:14.425Z,1008.76
2018-07-16T03:11:40.617Z,1008.8
2018-07-16T03:12:06.769Z,1008.77
2018-07-16T03:12:32.955Z,1008.78
2018-07-16T03:12:59.121Z,1008.76
2018-07-16T03:13:25.265Z,1008.79
2018-07-16T03:13:51.437Z,1008.81
2018-07-16T03:14:17.618Z,1008.73
2018-07-16T03:14:43.777Z,1008.77
2018-07-16T03:15:09.926Z,1008.78
2018-07-16T03:15:36.106Z,1008.75
2018-07-16T03:16:02.266Z,1008.74
2018-07-16T03:16:28.406Z,1008.78
2018-07-16T03:16:54.579Z,1008.74
2018-07-16T03:17:20.737Z,1008.75
2018-07-16T03:17:46.901Z,1008.76
2018-07-16T03:18:13.170Z,1008.76
2018-07-16T03:18:39.211Z,1008.75
2018-07-16T03:19:05.388Z,1008.78
2018-07-16T03:19:31.551Z,1008.76
2018-07-16T03:19:57.692Z,1008.76
2018-07-16T03:20:23.900Z,1008.79
2018-07-16T03:20:50.058Z,1008.8
2018-07-16T03:21:16.203Z,1008.81
2018-07-16T03:21:42.389Z,1008.8
2018-07-16T03:22:08.528Z,1008.79
2018-07-16T03:22:34.671Z,1008.81
2018-07-16T03:23:00.833Z,1008.78
2018-07-16T03:23:26.990Z,1008.8
2018-07-16T03:23:53.135Z,1008.81
2018-07-16T03:24:19.268Z,1008.8
2018-07-16T03:24:45.463Z,1008.79
2018-07-16T03:25:11.629Z,1008.79
2018-07-16T03:25:37.765Z,1008.85
2018-07-16T03:26:03.923Z,1008.84
2018-07-16T03:26:30.067Z,1008.83
2018-07-16T03:26:56.206Z,1008.84
2018-07-16T03:27:22.349Z,1008.82
2018-07-16T03:27:48.482Z,1008.86
2018-07-16T03:28:14.646Z,1008.82
2018-07-16T03:28:40.805Z,1008.84
2018-07-16T03:29:06.944Z,1008.84
2018-07-16T03:29:33.082Z,1008.82
2018-07-16T03:29:59.217Z,1008.84
2018-07-16T03:30:25.434Z,1008.85
2018-07-16T03:30:51.624Z,1008.82
2018-07-16T03:31:17.817Z,1008.84
2018-07-16T03:31:44.009Z,1008.82
2018-07-16T03:32:10.186Z,1008.84
2018-07-16T03:32:36.324Z,1008.85
2018-07-16T03:33:02.462Z,1008.83
2018-07-16T03:33:28.604Z,1008.82
2018-07-16T03:33:54.756Z,1008.86
2018-07-16T03:34:20.929Z,1008.87
2018-07-16T03:34:47.085Z,1008.85
2018-07-16T03:35:13.285Z,1008.85
2018-07-16T03:35:39.431Z,1008.85
2018-07-16T03:36:05.557Z,1008.88
2018-07-16T03:36:31.731Z,1008.86
2018-07-16T03:36:57.866Z,1008.89
2018-07-16T03:37:24.028Z,1008.91
2018-07-16T03:37:50.166Z,1008.87
2018-07-16T03:38:16.305Z,1008.87
2018-07-16T03:38:42.446Z,1008.84
2018-07-16T03:39:08.590Z,1008.85
2018-07-16T03:39:34.748Z,1008.82
2018-07-16T03:40:00.885Z,1008.85
2018-07-16T03:40:27.049Z,1008.86
2018-07-16T03:40:53.218Z,1008.78
2018-07-16T03:41:19.377Z,1008.83
2018-07-16T03:41:45.537Z,1008.8
2018-07-16T03:42:11.665Z,1008.8
2018-07-16T03:42:37.808Z,1008.78
2018-07-16T03:43:03.946Z,1008.76
2018-07-16T03:43:30.082Z,1008.8
2018-07-16T03:43:56.248Z,1008.8
2018-07-16T03:44:22.379Z,1008.78
2018-07-16T03:44:48.524Z,1008.76
2018-07-16T03:45:14.655Z,1008.71
2018-07-16T03:45:40.796Z,1008.75
2018-07-16T03:46:06.930Z,1008.75
2018-07-16T03:46:33.072Z,1008.73
2018-07-16T03:46:59.235Z,1008.71
2018-07-16T03:47:25.374Z,1008.71
2018-07-16T03:47:51.515Z,1008.74
2018-07-16T03:48:17.667Z,1008.74
2018-07-16T03:48:43.803Z,1008.74
2018-07-16T03:49:09.943Z,1008.72
2018-07-16T03:49:36.085Z,1008.7
2018-07-16T03:50:02.222Z,1008.73
2018-07-16T03:50:28.353Z,1008.71
2018-07-16T03:50:54.495Z,1008.76
2018-07-16T03:51:20.674Z,1008.72
2018-07-16T03:51:46.839Z,1008.68
2018-07-16T03:52:12.979Z,1008.72
2018-07-16T03:52:39.120Z,1008.73
2018-07-16T03:53:05.268Z,1008.72
2018-07-16T03:53:31.405Z,1008.73
2018-07-16T03:53:57.541Z,1008.76
2018-07-16T03:54:23.731Z,1008.75
2018-07-16T03:54:49.819Z,1008.75
2018-07-16T03:55:15.962Z,1008.75
2018-07-16T03:55:42.148Z,1008.79
2018-07-16T03:56:08.263Z,1008.82
2018-07-16T03:56:34.399Z,1008.83
2018-07-16T03:57:00.559Z,1008.81
2018-07-16T03:57:26.695Z,1008.81
2018-07-16T03:57:52.843Z,1008.73
2018-07-16T03:58:18.974Z,1008.72
2018-07-16T03:58:45.121Z,1008.73
2018-07-16T03:59:11.308Z,1008.73
2018-07-16T03:59:37.493Z,1008.75
2018-07-16T04:00:03.630Z,1008.73
2018-07-16T04:00:29.773Z,1008.75
2018-07-16T04:00:55.983Z,1008.76
2018-07-16T04:01:22.145Z,1008.78
2018-07-16T04:01:48.306Z,1008.81
2018-07-16T04:02:14.438Z,1008.74
2018-07-16T04:02:40.599Z,1008.74
2018-07-16T04:03:06.742Z,1008.73
2018-07-16T04:03:32.901Z,1008.75
2018-07-16T04:03:59.067Z,1008.78
2018-07-16T04:04:25.221Z,1008.76
2018-07-16T04:04:51.341Z,1008.76
2018-07-16T04:05:17.474Z,1008.78
2018-07-16T04:05:43.620Z,1008.8
2018-07-16T04:06:09.758Z,1008.79
2018-07-16T04:06:35.888Z,1008.79
2018-07-16T04:07:02.051Z,1008.77
2018-07-16T04:07:28.196Z,1008.76
2018-07-16T04:07:54.333Z,1008.78
2018-07-16T04:08:20.479Z,1008.8
2018-07-16T04:08:46.616Z,1008.77
2018-07-16T04:09:12.754Z,1008.76
2018-07-16T04:09:38.893Z,1008.78
2018-07-16T04:10:05.037Z,1008.79
2018-07-16T04:10:31.164Z,1008.79
2018-07-16T04:10:57.310Z,1008.76
2018-07-16T04:11:23.444Z,1008.8
2018-07-16T04:11:49.609Z,1008.77
2018-07-16T04:12:15.785Z,1008.75
2018-07-16T04:12:41.931Z,1008.76
2018-07-16T04:13:08.094Z,1008.77
2018-07-16T04:13:34.233Z,1008.75
2018-07-16T04:14:00.391Z,1008.78
2018-07-16T04:14:26.537Z,1008.77
2018-07-16T04:14:52.677Z,1008.72
2018-07-16T04:15:18.816Z,1008.77
2018-07-16T04:15:44.974Z,1008.72
2018-07-16T04:16:11.161Z,1008.74
2018-07-16T04:16:37.310Z,1008.74
2018-07-16T04:17:03.469Z,1008.76
2018-07-16T04:17:29.604Z,1008.69
2018-07-16T04:17:55.745Z,1008.77
2018-07-16T04:18:21.884Z,1008.73
2018-07-16T04:18:48.019Z,1008.73
2018-07-16T04:19:14.166Z,1008.75
2018-07-16T04:19:40.307Z,1008.75
2018-07-16T04:20:06.447Z,1008.78
2018-07-16T04:20:32.626Z,1008.77
2018-07-16T04:20:58.792Z,1008.83
2018-07-16T04:21:24.924Z,1008.84
2018-07-16T04:21:51.060Z,1008.81
2018-07-16T04:22:17.192Z,1008.81
2018-07-16T04:22:43.339Z,1008.81
2018-07-16T04:23:09.476Z,1008.77
2018-07-16T04:23:35.608Z,1008.79
2018-07-16T04:24:01.750Z,1008.76
2018-07-16T04:24:27.914Z,1008.78
2018-07-16T04:24:54.059Z,1008.75
2018-07-16T04:25:20.192Z,1008.79
2018-07-16T04:25:46.335Z,1008.79
2018-07-16T04:26:12.472Z,1008.74
2018-07-16T04:26:38.612Z,1008.76
2018-07-16T04:27:04.747Z,1008.78
2018-07-16T04:27:30.893Z,1008.75
2018-07-16T04:27:57.028Z,1008.77
2018-07-16T04:28:23.175Z,1008.73
2018-07-16T04:28:49.306Z,1008.74
2018-07-16T04:29:15.452Z,1008.75
2018-07-16T04:29:41.588Z,1008.74
2018-07-16T04:30:07.769Z,1008.78
2018-07-16T04:30:33.903Z,1008.75
2018-07-16T04:31:00.062Z,1008.74
2018-07-16T04:31:26.177Z,1008.76
2018-07-16T04:31:52.319Z,1008.77
2018-07-16T04:32:18.467Z,1008.75
2018-07-16T04:32:44.598Z,1008.77
2018-07-16T04:33:10.742Z,1008.77
2018-07-16T04:33:36.879Z,1008.79
2018-07-16T04:34:03.017Z,1008.78
2018-07-16T04:34:29.174Z,1008.76
2018-07-16T04:34:55.334Z,1008.77
2018-07-16T04:35:21.499Z,1008.77
2018-07-16T04:35:47.667Z,1008.77
2018-07-16T04:36:13.826Z,1008.78
2018-07-16T04:36:39.994Z,1008.79
2018-07-16T04:37:06.151Z,1008.81
2018-07-16T04:37:32.330Z,1008.81
2018-07-16T04:37:58.476Z,1008.84
2018-07-16T04:38:24.611Z,1008.82
2018-07-16T04:38:50.750Z,1008.82
2018-07-16T04:39:16.885Z,1008.8
2018-07-16T04:39:43.094Z,1008.81
2018-07-16T04:40:09.186Z,1008.84
2018-07-16T04:40:35.321Z,1008.8
2018-07-16T04:41:01.459Z,1008.83
2018-07-16T04:41:27.601Z,1008.81
2018-07-16T04:41:53.758Z,1008.82
2018-07-16T04:42:19.927Z,1008.79
2018-07-16T04:42:46.072Z,1008.75
2018-07-16T04:43:12.205Z,1008.72
2018-07-16T04:43:38.361Z,1008.73
2018-07-16T04:44:04.505Z,1008.75
2018-07-16T04:44:30.684Z,1008.73
2018-07-16T04:44:56.825Z,1008.72
2018-07-16T04:45:22.965Z,1008.71
2018-07-16T04:45:49.121Z,1008.74
2018-07-16T04:46:15.258Z,1008.68
2018-07-16T04:46:41.396Z,1008.74
2018-07-16T04:47:07.532Z,1008.72
2018-07-16T04:47:33.671Z,1008.73
2018-07-16T04:47:59.812Z,1008.7
2018-07-16T04:48:25.950Z,1008.69
2018-07-16T04:48:52.094Z,1008.66
2018-07-16T04:49:18.226Z,1008.7
2018-07-16T04:49:44.379Z,1008.72
2018-07-16T04:50:10.539Z,1008.68
2018-07-16T04:50:36.682Z,1008.71
2018-07-16T04:51:02.816Z,1008.7
2018-07-16T04:51:28.978Z,1008.73
2018-07-16T04:51:55.110Z,1008.71
2018-07-16T04:52:21.251Z,1008.75
2018-07-16T04:52:47.411Z,1008.76
2018-07-16T04:53:13.592Z,1008.81
2018-07-16T04:53:39.737Z,1008.79
2018-07-16T04:54:05.873Z,1008.79
2018-07-16T04:54:32.016Z,1008.85
2018-07-16T04:54:58.152Z,1008.88
2018-07-16T04:55:24.293Z,1008.84
2018-07-16T04:55:50.426Z,1008.86
2018-07-16T04:56:16.788Z,1008.85
2018-07-16T04:56:42.730Z,1008.81
2018-07-16T04:57:08.863Z,1008.79
2018-07-16T04:57:34.998Z,1008.78
2018-07-16T04:58:01.144Z,1008.8
2018-07-16T04:58:27.272Z,1008.76
2018-07-16T04:58:53.419Z,1008.76
2018-07-16T04:59:19.551Z,1008.78
2018-07-16T04:59:45.687Z,1008.77
2018-07-16T05:00:11.856Z,1008.8
2018-07-16T05:00:38.015Z,1008.78
2018-07-16T05:01:04.155Z,1008.77
2018-07-16T05:01:30.301Z,1008.74
2018-07-16T05:01:56.442Z,1008.74
2018-07-16T05:02:22.577Z,1008.73
2018-07-16T05:02:48.710Z,1008.66
2018-07-16T05:03:14.951Z,1008.62
2018-07-16T05:03:41.029Z,1008.64
2018-07-16T05:04:07.171Z,1008.68
2018-07-16T05:04:33.313Z,1008.64
2018-07-16T05:04:59.445Z,1008.67
2018-07-16T05:05:25.584Z,1008.67
2018-07-16T05:05:51.725Z,1008.62
2018-07-16T05:06:17.864Z,1008.6
2018-07-16T05:06:44.005Z,1008.62
2018-07-16T05:07:10.139Z,1008.67
2018-07-16T05:07:36.285Z,1008.7
2018-07-16T05:08:02.425Z,1008.68
2018-07-16T05:08:28.567Z,1008.66
2018-07-16T05:08:54.705Z,1008.64
2018-07-16T05:09:20.844Z,1008.68
2018-07-16T05:09:46.984Z,1008.67
2018-07-16T05:10:13.121Z,1008.7
2018-07-16T05:10:39.257Z,1008.68
2018-07-16T05:11:05.396Z,1008.65
2018-07-16T05:11:31.534Z,1008.63
2018-07-16T05:11:57.700Z,1008.65
2018-07-16T05:12:23.832Z,1008.63
2018-07-16T05:12:49.979Z,1008.64
2018-07-16T05:13:16.117Z,1008.64
2018-07-16T05:13:42.259Z,1008.66
2018-07-16T05:14:08.399Z,1008.67
2018-07-16T05:14:34.568Z,1008.63
2018-07-16T05:15:00.677Z,1008.64
2018-07-16T05:15:26.822Z,1008.67
2018-07-16T05:15:52.978Z,1008.69
2018-07-16T05:16:19.122Z,1008.65
2018-07-16T05:16:45.260Z,1008.64
2018-07-16T05:17:11.430Z,1008.63
2018-07-16T05:17:37.599Z,1008.64